createdAt,value
2023-03-27T00:01:11.337Z,2.80
2023-03-27T00:03:38.551Z,2.80
2023-03-27T00:06:08.571Z,2.80
2023-03-27T00:08:36.622Z,2.80
2023-03-27T00:11:04.992Z,2.90
2023-03-27T00:13:32.100Z,2.90
2023-03-27T00:15:59.136Z,2.90
2023-03-27T00:18:27.426Z,2.90
2023-03-27T00:20:54.471Z,2.80
2023-03-27T00:23:21.453Z,2.80
2023-03-27T00:25:51.697Z,2.70
2023-03-27T00:28:18.722Z,2.60
2023-03-27T00:30:45.637Z,2.60
2023-03-27T00:33:12.980Z,2.60
2023-03-27T00:35:44.480Z,2.60
2023-03-27T00:38:11.594Z,2.50
2023-03-27T00:40:38.815Z,2.40
2023-03-27T00:43:29.152Z,2.40
2023-03-27T00:46:00.745Z,2.40
2023-03-27T00:48:29.817Z,2.30
2023-03-27T00:50:58.280Z,2.30
2023-03-27T00:53:28.233Z,2.20
2023-03-27T00:56:05.211Z,2.20
2023-03-27T00:58:37.611Z,2.10
2023-03-27T01:01:04.636Z,2.10
2023-03-27T01:03:33.163Z,1.90
2023-03-27T01:06:02.168Z,1.90
2023-03-27T01:08:31.254Z,1.90
2023-03-27T01:11:19.303Z,1.80
2023-03-27T01:14:13.402Z,1.80
2023-03-27T01:17:01.985Z,1.80
2023-03-27T01:19:46.561Z,1.80
2023-03-27T01:22:50.892Z,1.80
2023-03-27T01:25:36.119Z,1.70
2023-03-27T01:28:28.203Z,1.70
2023-03-27T01:31:13.544Z,1.70
2023-03-27T01:33:48.117Z,1.70
2023-03-27T01:36:38.029Z,1.70
2023-03-27T01:39:13.650Z,1.70
2023-03-27T01:41:54.243Z,1.80
2023-03-27T01:44:44.467Z,1.70
2023-03-27T01:47:15.166Z,1.70
2023-03-27T01:49:50.232Z,1.70
2023-03-27T01:52:24.565Z,1.70
2023-03-27T01:54:55.726Z,1.70
2023-03-27T01:57:27.828Z,1.70
2023-03-27T02:00:18.362Z,1.70
2023-03-27T02:03:00.277Z,1.80
2023-03-27T02:05:36.814Z,1.60
2023-03-27T02:08:22.370Z,1.60
2023-03-27T02:10:54.448Z,1.50
2023-03-27T02:13:42.494Z,1.50
2023-03-27T02:16:13.255Z,1.50
2023-03-27T02:18:46.432Z,1.50
2023-03-27T02:21:14.101Z,1.40
2023-03-27T02:23:41.215Z,1.40
2023-03-27T02:26:11.666Z,1.20
2023-03-27T02:29:17.324Z,1.00
2023-03-27T02:31:58.554Z,0.90
2023-03-27T02:34:34.263Z,0.80
2023-03-27T02:37:21.593Z,0.80
2023-03-27T02:40:06.289Z,0.80
2023-03-27T02:43:09.899Z,0.70
2023-03-27T02:45:56.708Z,0.70
2023-03-27T02:48:35.596Z,0.60
2023-03-27T02:51:08.763Z,0.60
2023-03-27T02:54:15.926Z,0.40
2023-03-27T02:56:47.319Z,0.40
2023-03-27T02:59:20.206Z,0.40
2023-03-27T03:01:47.344Z,0.40
2023-03-27T03:04:31.312Z,0.30
2023-03-27T03:06:58.494Z,0.30
2023-03-27T03:09:25.576Z,0.60
2023-03-27T03:11:53.968Z,0.30
2023-03-27T03:14:33.263Z,0.30
2023-03-27T03:17:00.152Z,0.30
2023-03-27T03:19:27.003Z,0.20
2023-03-27T03:21:54.099Z,0.20
2023-03-27T03:24:20.923Z,0.20
2023-03-27T03:26:48.960Z,0.20
2023-03-27T03:29:16.466Z,0.20
2023-03-27T03:31:43.602Z,0.10
2023-03-27T03:34:15.975Z,0.20
2023-03-27T03:36:43.661Z,0.20
2023-03-27T03:39:10.678Z,0.20
2023-03-27T03:41:37.554Z,0.10
2023-03-27T03:44:04.416Z,0.10
2023-03-27T03:46:31.275Z,0.10
2023-03-27T03:48:59.295Z,0.10
2023-03-27T03:51:26.423Z,0.00
2023-03-27T03:53:53.366Z,-0.10
2023-03-27T03:56:20.205Z,-0.10
2023-03-27T03:58:47.060Z,-0.20
2023-03-27T04:01:13.936Z,-0.30
2023-03-27T04:03:41.017Z,-0.20
2023-03-27T04:06:08.201Z,-0.30
2023-03-27T04:08:35.437Z,-0.20
2023-03-27T04:11:02.333Z,-0.30
2023-03-27T04:13:29.221Z,-0.20
2023-03-27T04:15:56.120Z,-0.30
2023-03-27T04:18:23.199Z,-0.30
2023-03-27T04:20:50.163Z,-0.30
2023-03-27T04:23:18.009Z,-0.40
2023-03-27T04:25:46.002Z,-0.50
2023-03-27T04:28:13.972Z,-0.50
2023-03-27T04:30:40.854Z,-0.40
2023-03-27T04:33:07.763Z,-0.50
2023-03-27T04:35:34.689Z,-0.50
2023-03-27T04:38:01.578Z,-0.50
2023-03-27T04:40:28.426Z,-0.50
2023-03-27T04:42:55.278Z,-0.60
2023-03-27T04:45:22.114Z,-0.60
2023-03-27T04:47:49.570Z,-0.50
2023-03-27T04:50:16.697Z,-0.60
2023-03-27T04:52:43.863Z,-0.70
2023-03-27T04:55:11.204Z,-0.80
2023-03-27T04:57:38.511Z,-0.70
2023-03-27T05:00:06.862Z,-0.90
2023-03-27T05:02:33.798Z,-0.90
2023-03-27T05:05:00.714Z,-0.90
2023-03-27T05:07:27.643Z,-0.90
2023-03-27T05:09:54.475Z,-1.00
2023-03-27T05:12:21.807Z,-0.80
2023-03-27T05:14:48.874Z,-0.90
2023-03-27T05:17:16.630Z,-0.90
2023-03-27T05:19:43.689Z,-1.00
2023-03-27T05:22:10.739Z,-0.90
2023-03-27T05:24:37.594Z,-0.90
2023-03-27T05:27:04.606Z,-0.90
2023-03-27T05:29:47.171Z,-0.90
2023-03-27T05:32:14.981Z,-0.90
2023-03-27T05:34:41.968Z,-0.80
2023-03-27T05:37:08.847Z,-0.80
2023-03-27T05:39:35.748Z,-0.70
2023-03-27T05:42:02.905Z,-0.70
2023-03-27T05:44:29.741Z,-0.70
2023-03-27T05:46:56.613Z,-0.60
2023-03-27T05:49:23.508Z,-0.50
2023-03-27T05:51:50.388Z,-0.40
2023-03-27T05:54:17.214Z,-0.30
2023-03-27T05:56:44.100Z,-0.20
2023-03-27T05:59:10.971Z,-0.10
2023-03-27T06:01:37.874Z,0.00
2023-03-27T06:04:04.860Z,0.10
2023-03-27T06:06:31.827Z,0.20
2023-03-27T06:08:58.698Z,0.30
2023-03-27T06:11:25.627Z,0.30
2023-03-27T06:13:52.506Z,0.40
2023-03-27T06:16:19.751Z,0.50
2023-03-27T06:18:47.462Z,0.60
2023-03-27T06:21:14.614Z,0.70
2023-03-27T06:23:41.476Z,0.80
2023-03-27T06:26:08.352Z,0.80
2023-03-27T06:28:35.225Z,0.90
2023-03-27T06:31:02.105Z,1.00
2023-03-27T06:33:28.975Z,1.10
2023-03-27T06:35:56.261Z,1.10
2023-03-27T06:38:23.245Z,1.10
2023-03-27T06:40:50.068Z,1.30
2023-03-27T06:43:16.995Z,1.50
2023-03-27T06:45:48.781Z,1.60
2023-03-27T06:48:20.458Z,1.70
2023-03-27T06:50:50.275Z,1.70
2023-03-27T06:53:26.709Z,1.80
2023-03-27T06:55:58.739Z,1.90
2023-03-27T06:58:25.886Z,1.80
2023-03-27T07:00:52.762Z,1.90
2023-03-27T07:03:21.580Z,2.00
2023-03-27T07:05:48.886Z,2.20
2023-03-27T07:08:24.349Z,2.30
2023-03-27T07:11:07.949Z,2.40
2023-03-27T07:13:38.864Z,2.40
2023-03-27T07:16:06.273Z,2.40
2023-03-27T07:18:33.205Z,2.40
2023-03-27T07:21:00.318Z,2.50
2023-03-27T07:23:27.378Z,2.50
2023-03-27T07:26:00.944Z,2.50
2023-03-27T07:28:28.234Z,2.50
2023-03-27T07:30:55.751Z,2.60
2023-03-27T07:33:22.886Z,2.60
2023-03-27T07:35:49.922Z,2.70
2023-03-27T07:38:17.224Z,2.90
2023-03-27T07:40:47.132Z,3.10
2023-03-27T07:43:14.362Z,3.30
2023-03-27T07:45:41.792Z,3.50
2023-03-27T07:48:14.286Z,3.70
2023-03-27T07:50:41.149Z,3.70
2023-03-27T07:53:08.128Z,3.60
2023-03-27T07:55:35.027Z,3.80
2023-03-27T07:58:03.558Z,4.00
2023-03-27T08:00:31.206Z,4.10
2023-03-27T08:03:09.435Z,4.10
2023-03-27T08:05:37.463Z,4.20
2023-03-27T08:08:04.544Z,4.30
2023-03-27T08:10:31.438Z,4.30
2023-03-27T08:12:58.342Z,4.60
2023-03-27T08:15:25.551Z,5.10
2023-03-27T08:17:53.243Z,6.90
2023-03-27T08:20:21.034Z,5.60
2023-03-27T08:22:47.874Z,5.80
2023-03-27T08:25:14.732Z,9.00
2023-03-27T08:27:41.572Z,8.60
2023-03-27T08:30:09.244Z,7.90
2023-03-27T08:32:36.154Z,9.00
2023-03-27T08:35:03.146Z,6.90
2023-03-27T08:37:30.048Z,8.70
2023-03-27T08:39:56.986Z,7.60
2023-03-27T08:42:36.557Z,10.00
2023-03-27T08:45:25.534Z,11.30
2023-03-27T08:48:01.211Z,9.00
2023-03-27T08:50:32.853Z,7.60
2023-03-27T08:53:00.841Z,8.50
2023-03-27T08:58:54.459Z,7.80
2023-03-27T09:01:35.158Z,7.00
2023-03-27T09:04:24.873Z,6.50
2023-03-27T09:07:14.996Z,6.40
2023-03-27T09:10:07.066Z,7.50
2023-03-27T09:12:58.008Z,6.70
2023-03-27T09:15:32.327Z,6.60
2023-03-27T09:18:14.571Z,6.50
2023-03-27T09:20:45.593Z,6.60
2023-03-27T09:23:21.043Z,6.50
2023-03-27T09:25:59.188Z,6.30
2023-03-27T09:28:38.124Z,6.80
2023-03-27T09:31:26.595Z,6.60
2023-03-27T09:33:55.467Z,7.80
2023-03-27T09:36:23.775Z,7.90
2023-03-27T09:38:57.552Z,8.30
2023-03-27T09:41:31.321Z,7.90
2023-03-27T09:44:03.110Z,7.30
2023-03-27T09:46:30.220Z,7.20
2023-03-27T09:49:20.591Z,7.70
2023-03-27T09:51:52.577Z,8.10
2023-03-27T09:54:22.294Z,9.00
2023-03-27T09:56:57.611Z,9.30
2023-03-27T09:59:59.402Z,9.70
2023-03-27T10:02:30.826Z,8.40
2023-03-27T10:05:18.062Z,8.70
2023-03-27T10:07:45.158Z,9.30
2023-03-27T10:10:15.397Z,9.80
2023-03-27T10:12:43.775Z,10.20
2023-03-27T10:15:34.672Z,9.80
2023-03-27T10:18:04.533Z,8.60
2023-03-27T10:20:31.785Z,8.10
2023-03-27T10:23:21.509Z,8.40
2023-03-27T10:25:53.647Z,8.70
2023-03-27T10:28:28.052Z,9.70
2023-03-27T10:31:21.914Z,10.10
2023-03-27T10:33:48.772Z,10.60
2023-03-27T10:36:16.836Z,10.20
2023-03-27T10:38:54.072Z,9.00
2023-03-27T10:41:28.088Z,8.60
2023-03-27T10:43:57.117Z,9.40
2023-03-27T10:46:26.722Z,9.90
2023-03-27T10:49:18.627Z,10.90
2023-03-27T10:52:00.639Z,11.30
2023-03-27T10:54:44.944Z,11.60
2023-03-27T10:57:25.233Z,12.00
2023-03-27T10:59:57.042Z,11.70
2023-03-27T11:02:36.341Z,11.00
2023-03-27T11:05:10.107Z,10.80
2023-03-27T11:08:02.179Z,11.20
2023-03-27T11:10:36.858Z,12.40
2023-03-27T11:13:25.165Z,13.10
2023-03-27T11:16:09.326Z,12.00
2023-03-27T11:18:41.332Z,10.80
2023-03-27T11:21:13.487Z,10.80
2023-03-27T11:23:47.930Z,10.90
2023-03-27T11:26:16.598Z,11.20
2023-03-27T11:28:59.832Z,12.50
2023-03-27T11:31:42.485Z,11.50
2023-03-27T11:34:33.962Z,11.50
2023-03-27T11:37:22.569Z,10.20
2023-03-27T11:40:04.462Z,9.50
2023-03-27T11:42:34.695Z,9.80
2023-03-27T11:45:02.052Z,10.60
2023-03-27T11:47:31.900Z,11.90
2023-03-27T11:50:04.923Z,11.50
2023-03-27T11:53:05.661Z,11.50
2023-03-27T11:56:11.809Z,10.70
2023-03-27T11:59:00.514Z,10.20
2023-03-27T12:01:50.145Z,9.80
2023-03-27T12:04:30.329Z,10.20
2023-03-27T12:07:06.858Z,10.10
2023-03-27T12:09:44.165Z,10.60
2023-03-27T12:12:13.763Z,9.70
2023-03-27T12:14:55.347Z,9.50
2023-03-27T12:17:35.176Z,9.50
2023-03-27T12:20:30.889Z,8.90
2023-03-27T12:23:09.828Z,8.40
2023-03-27T12:26:02.933Z,8.20
2023-03-27T12:28:55.814Z,7.70
2023-03-27T12:31:22.733Z,7.40
2023-03-27T12:34:18.505Z,6.20
2023-03-27T12:36:46.800Z,5.60
2023-03-27T12:39:23.179Z,4.90
2023-03-27T12:41:50.241Z,4.60
2023-03-27T12:44:28.631Z,4.30
2023-03-27T12:47:07.767Z,4.70
2023-03-27T12:49:48.005Z,5.60
2023-03-27T12:52:15.558Z,6.40
2023-03-27T12:55:07.156Z,7.00
2023-03-27T12:57:45.336Z,7.30
2023-03-27T13:00:24.130Z,7.60
2023-03-27T13:03:09.023Z,8.00
2023-03-27T13:06:00.450Z,8.30
2023-03-27T13:08:54.714Z,8.90
2023-03-27T13:11:33.634Z,9.00
2023-03-27T13:14:33.017Z,9.60
2023-03-27T13:17:17.694Z,9.80
2023-03-27T13:20:01.390Z,8.90
2023-03-27T13:22:40.706Z,8.60
2023-03-27T13:25:20.648Z,8.20
2023-03-27T13:27:53.714Z,7.90
2023-03-27T13:30:53.550Z,7.70
2023-03-27T13:33:25.677Z,7.50
2023-03-27T13:36:02.752Z,7.40
2023-03-27T13:38:51.364Z,7.50
2023-03-27T13:41:45.690Z,7.10
2023-03-27T13:44:27.571Z,7.10
2023-03-27T13:47:13.295Z,6.70
2023-03-27T13:49:55.161Z,6.50
2023-03-27T13:52:46.313Z,6.50
2023-03-27T13:55:34.968Z,5.80
2023-03-27T13:58:23.127Z,5.70
2023-03-27T14:00:55.907Z,6.40
2023-03-27T14:03:49.232Z,6.70
2023-03-27T14:06:28.138Z,7.60
2023-03-27T14:09:14.900Z,7.70
2023-03-27T14:12:15.411Z,7.90
2023-03-27T14:15:16.945Z,8.50
2023-03-27T14:18:01.898Z,9.70
2023-03-27T14:20:34.179Z,9.40
2023-03-27T14:23:00.985Z,9.60
2023-03-27T14:25:32.948Z,10.00
2023-03-27T14:27:59.927Z,10.30
2023-03-27T14:30:30.424Z,10.90
2023-03-27T14:33:09.721Z,11.00
2023-03-27T14:35:43.307Z,9.90
2023-03-27T14:38:28.939Z,9.00
2023-03-27T14:40:58.612Z,8.60
2023-03-27T14:43:27.851Z,8.20
2023-03-27T14:46:05.055Z,8.10
2023-03-27T14:48:35.963Z,7.90
2023-03-27T14:51:08.762Z,7.20
2023-03-27T14:53:38.559Z,6.90
2023-03-27T14:56:08.462Z,6.40
2023-03-27T14:58:43.767Z,5.80
2023-03-27T15:01:11.473Z,5.50
2023-03-27T15:03:38.929Z,5.00
2023-03-27T15:06:14.110Z,5.30
2023-03-27T15:08:44.267Z,6.10
2023-03-27T15:11:16.172Z,7.00
2023-03-27T15:13:45.768Z,8.10
2023-03-27T15:16:22.425Z,8.40
2023-03-27T15:19:05.066Z,8.90
2023-03-27T15:21:46.700Z,8.90
2023-03-27T15:24:39.149Z,9.20
2023-03-27T15:27:15.017Z,8.70
2023-03-27T15:29:48.030Z,7.70
2023-03-27T15:32:17.697Z,7.20
2023-03-27T15:34:51.126Z,7.30
2023-03-27T15:37:21.049Z,7.20
2023-03-27T15:40:09.492Z,7.10
2023-03-27T15:42:48.280Z,7.50
2023-03-27T15:45:17.100Z,7.40
2023-03-27T15:48:01.361Z,7.20
2023-03-27T15:50:28.503Z,7.20
2023-03-27T15:52:56.269Z,7.10
2023-03-27T15:55:45.610Z,6.80
2023-03-27T15:58:31.056Z,7.00
2023-03-27T16:01:01.456Z,7.00
2023-03-27T16:03:32.846Z,6.50
2023-03-27T16:06:00.984Z,6.60
2023-03-27T16:08:38.870Z,6.50
2023-03-27T16:11:06.027Z,6.50
2023-03-27T16:13:42.242Z,6.40
2023-03-27T16:16:31.193Z,6.60
2023-03-27T16:19:11.624Z,6.40
2023-03-27T16:21:38.557Z,6.40
2023-03-27T16:24:05.773Z,6.40
2023-03-27T16:26:33.013Z,6.10
2023-03-27T16:29:04.807Z,6.00
2023-03-27T16:31:31.772Z,5.80
2023-03-27T16:33:58.808Z,6.00
2023-03-27T16:36:30.599Z,5.80
2023-03-27T16:38:57.511Z,5.60
2023-03-27T16:41:24.484Z,5.50
2023-03-27T16:43:51.373Z,5.40
2023-03-27T16:46:29.127Z,5.30
2023-03-27T16:48:56.128Z,5.30
2023-03-27T16:51:25.376Z,5.30
2023-03-27T16:53:52.452Z,5.30
2023-03-27T16:56:20.696Z,5.20
2023-03-27T16:58:47.711Z,5.20
2023-03-27T17:01:14.713Z,5.10
2023-03-27T17:03:41.602Z,5.00
2023-03-27T17:06:10.568Z,5.00
2023-03-27T17:08:37.747Z,4.90
2023-03-27T17:11:10.875Z,4.90
2023-03-27T17:13:40.204Z,4.70
2023-03-27T17:16:08.782Z,4.60
2023-03-27T17:18:35.682Z,4.60
2023-03-27T17:21:02.740Z,4.60
2023-03-27T17:23:29.562Z,4.50
2023-03-27T17:26:00.420Z,4.50
2023-03-27T17:28:27.461Z,4.40
2023-03-27T17:31:04.605Z,4.30
2023-03-27T17:33:32.799Z,4.30
2023-03-27T17:35:59.988Z,4.20
2023-03-27T17:38:27.170Z,4.20
2023-03-27T17:40:54.007Z,4.10
2023-03-27T17:43:20.898Z,4.10
2023-03-27T17:45:47.795Z,4.00
2023-03-27T17:48:14.619Z,4.00
2023-03-27T17:50:41.525Z,3.90
2023-03-27T17:53:08.418Z,3.90
2023-03-27T17:55:37.281Z,3.70
2023-03-27T17:58:09.527Z,3.40
2023-03-27T18:00:38.208Z,3.10
2023-03-27T18:03:05.624Z,3.20
2023-03-27T18:05:39.954Z,3.10
2023-03-27T18:08:08.616Z,3.10
2023-03-27T18:10:35.718Z,3.10
2023-03-27T18:13:02.836Z,3.10
2023-03-27T18:15:30.343Z,3.20
2023-03-27T18:17:57.317Z,3.20
2023-03-27T18:20:24.336Z,3.20
2023-03-27T18:22:51.217Z,3.30
2023-03-27T18:25:18.163Z,3.30
2023-03-27T18:27:45.063Z,3.30
2023-03-27T18:30:14.963Z,3.30
2023-03-27T18:32:43.820Z,3.30
2023-03-27T18:35:16.215Z,3.30
2023-03-27T18:37:44.147Z,3.30
2023-03-27T18:40:12.608Z,3.30
2023-03-27T18:42:40.859Z,2.50
2023-03-27T18:45:08.843Z,2.20
2023-03-27T18:47:36.589Z,2.00
2023-03-27T18:50:05.966Z,2.00
2023-03-27T18:52:32.953Z,2.00
2023-03-27T18:54:59.878Z,2.00
2023-03-27T18:57:27.011Z,2.00
2023-03-27T18:59:53.904Z,1.80
2023-03-27T19:02:20.967Z,1.80
2023-03-27T19:04:47.882Z,1.90
2023-03-27T19:07:15.538Z,1.80
2023-03-27T19:09:42.928Z,1.70
2023-03-27T19:12:10.613Z,1.70
2023-03-27T19:14:37.523Z,1.60
2023-03-27T19:17:05.394Z,1.60
2023-03-27T19:19:32.310Z,1.60
2023-03-27T19:21:59.351Z,1.60
2023-03-27T19:24:26.285Z,1.50
2023-03-27T19:26:53.134Z,1.50
2023-03-27T19:29:20.564Z,1.50
2023-03-27T19:31:47.374Z,1.40
2023-03-27T19:34:14.275Z,1.50
2023-03-27T19:36:41.136Z,1.50
2023-03-27T19:39:07.966Z,1.50
2023-03-27T19:41:34.841Z,1.50
2023-03-27T19:44:01.693Z,1.60
2023-03-27T19:46:28.668Z,1.40
2023-03-27T19:48:55.663Z,1.50
2023-03-27T19:51:22.504Z,1.50
2023-03-27T19:53:49.397Z,1.50
2023-03-27T19:56:16.321Z,1.40
2023-03-27T19:58:43.182Z,1.50
2023-03-27T20:01:10.087Z,1.40
2023-03-27T20:03:37.189Z,1.40
2023-03-27T20:06:06.905Z,1.40
2023-03-27T20:08:36.066Z,1.30
2023-03-27T20:11:02.911Z,1.30
2023-03-27T20:13:29.984Z,1.30
2023-03-27T20:15:57.164Z,1.20
2023-03-27T20:18:24.253Z,1.30
2023-03-27T20:20:51.123Z,1.20
2023-03-27T20:23:18.628Z,1.20
2023-03-27T20:25:45.736Z,1.20
2023-03-27T20:28:12.679Z,1.10
2023-03-27T20:30:41.269Z,1.20
2023-03-27T20:33:08.202Z,1.10
2023-03-27T20:35:35.158Z,1.10
2023-03-27T20:38:02.046Z,1.10
2023-03-27T20:40:30.286Z,1.10
2023-03-27T20:43:01.731Z,1.20
2023-03-27T20:45:28.997Z,1.20
2023-03-27T20:47:55.926Z,1.30
2023-03-27T20:50:22.855Z,1.30
2023-03-27T20:52:49.719Z,1.30
2023-03-27T20:55:30.396Z,1.40
2023-03-27T20:57:59.577Z,1.40
2023-03-27T21:00:26.451Z,1.30
2023-03-27T21:02:53.414Z,1.30
2023-03-27T21:05:20.352Z,1.30
2023-03-27T21:07:47.194Z,1.30
2023-03-27T21:10:14.165Z,1.30
2023-03-27T21:12:41.044Z,1.40
2023-03-27T21:15:08.503Z,1.40
2023-03-27T21:17:35.388Z,1.40
2023-03-27T21:20:02.235Z,1.50
2023-03-27T21:22:29.069Z,1.60
2023-03-27T21:24:55.963Z,1.60
2023-03-27T21:27:22.797Z,1.60
2023-03-27T21:29:49.668Z,1.60
2023-03-27T21:32:16.500Z,1.40
2023-03-27T21:34:43.360Z,1.30
2023-03-27T21:37:10.281Z,1.30
2023-03-27T21:39:37.220Z,1.20
2023-03-27T21:42:04.261Z,1.20
2023-03-27T21:44:31.107Z,1.20
2023-03-27T21:46:57.978Z,1.20
2023-03-27T21:49:24.851Z,1.20
2023-03-27T21:51:51.688Z,1.10
2023-03-27T21:54:18.611Z,1.20
2023-03-27T21:56:45.486Z,1.10
2023-03-27T21:59:12.373Z,1.10
2023-03-27T22:01:39.303Z,1.10
2023-03-27T22:04:06.232Z,1.20
2023-03-27T22:06:33.128Z,1.20
2023-03-27T22:09:00.298Z,1.20
2023-03-27T22:11:27.826Z,1.20
2023-03-27T22:13:54.668Z,1.20
2023-03-27T22:16:21.870Z,1.20
2023-03-27T22:18:48.796Z,1.20
2023-03-27T22:21:21.453Z,1.10
2023-03-27T22:23:48.554Z,1.20
2023-03-27T22:26:15.416Z,1.20
2023-03-27T22:28:42.414Z,1.20
2023-03-27T22:31:09.423Z,1.10
2023-03-27T22:33:39.668Z,1.10
2023-03-27T22:36:09.884Z,1.20
2023-03-27T22:38:36.763Z,1.10
2023-03-27T22:41:06.210Z,1.10
2023-03-27T22:43:33.059Z,1.20
2023-03-27T22:46:14.676Z,1.10
2023-03-27T22:48:42.203Z,1.00
2023-03-27T22:51:10.753Z,1.00
2023-03-27T22:53:38.386Z,1.10
2023-03-27T22:56:06.471Z,1.10
2023-03-27T22:58:34.211Z,1.00
2023-03-27T23:01:01.795Z,1.00
2023-03-27T23:03:29.053Z,1.00
2023-03-27T23:05:55.989Z,1.00
2023-03-27T23:08:24.985Z,1.00
2023-03-27T23:11:00.437Z,1.10
2023-03-27T23:13:29.181Z,1.10
2023-03-27T23:15:56.064Z,1.10
2023-03-27T23:18:24.345Z,1.10
2023-03-27T23:21:09.289Z,1.10
2023-03-27T23:23:37.614Z,1.20
2023-03-27T23:26:05.630Z,1.20
2023-03-27T23:28:34.720Z,1.30
2023-03-27T23:31:20.215Z,1.30
2023-03-27T23:33:49.370Z,1.30
2023-03-27T23:36:24.563Z,1.40
2023-03-27T23:38:52.914Z,1.30
2023-03-27T23:41:20.831Z,1.20
2023-03-27T23:43:48.232Z,1.20
2023-03-27T23:46:15.975Z,1.20
2023-03-27T23:48:43.898Z,1.20
2023-03-27T23:51:12.603Z,1.10
2023-03-27T23:53:39.796Z,1.10
2023-03-27T23:56:07.039Z,1.00
2023-03-27T23:58:34.082Z,1.00
